createdAt,value
2023-05-09T00:01:34.593Z,98.60
2023-05-09T00:04:04.617Z,98.70
2023-05-09T00:06:34.022Z,98.90
2023-05-09T00:09:02.484Z,99.00
2023-05-09T00:11:30.705Z,99.10
2023-05-09T00:13:59.044Z,99.30
2023-05-09T00:16:29.021Z,99.40
2023-05-09T00:18:58.023Z,99.50
2023-05-09T00:21:28.327Z,99.70
2023-05-09T00:23:56.980Z,99.90
2023-05-09T00:26:26.483Z,99.90
2023-05-09T00:28:55.201Z,99.90
2023-05-09T00:31:23.577Z,99.90
2023-05-09T00:33:51.906Z,99.90
2023-05-09T00:36:20.133Z,99.90
2023-05-09T00:38:49.860Z,99.90
2023-05-09T00:41:18.158Z,99.90
2023-05-09T00:43:46.615Z,99.90
2023-05-09T00:46:15.156Z,99.90
2023-05-09T00:48:43.992Z,99.90
2023-05-09T00:51:13.124Z,99.90
2023-05-09T00:53:42.393Z,99.90
2023-05-09T00:56:13.195Z,99.90
2023-05-09T00:58:42.056Z,99.90
2023-05-09T01:01:10.470Z,99.90
2023-05-09T01:03:41.399Z,99.90
2023-05-09T01:06:19.609Z,99.90
2023-05-09T01:08:57.350Z,99.90
2023-05-09T01:11:33.257Z,99.90
2023-05-09T01:14:09.720Z,99.90
2023-05-09T01:16:43.141Z,99.90
2023-05-09T01:19:42.966Z,99.90
2023-05-09T01:22:13.823Z,99.90
2023-05-09T01:25:03.147Z,99.90
2023-05-09T01:27:45.384Z,99.90
2023-05-09T01:30:17.705Z,99.90
2023-05-09T01:32:51.362Z,99.90
2023-05-09T01:35:24.389Z,99.90
2023-05-09T01:37:53.065Z,99.90
2023-05-09T01:40:22.580Z,99.90
2023-05-09T01:42:56.617Z,99.90
2023-05-09T01:45:27.483Z,99.90
2023-05-09T01:47:57.637Z,99.90
2023-05-09T01:50:27.418Z,99.90
2023-05-09T01:52:58.034Z,99.90
2023-05-09T01:55:30.302Z,99.90
2023-05-09T01:58:00.108Z,99.90
2023-05-09T02:00:30.503Z,99.90
2023-05-09T02:03:00.162Z,99.90
2023-05-09T02:05:31.198Z,99.90
2023-05-09T02:08:00.274Z,99.90
2023-05-09T02:10:29.716Z,99.90
2023-05-09T02:12:58.508Z,99.90
2023-05-09T02:15:27.406Z,99.90
2023-05-09T02:17:57.500Z,99.90
2023-05-09T02:20:26.017Z,99.90
2023-05-09T02:22:54.697Z,99.90
2023-05-09T02:25:23.368Z,99.90
2023-05-09T02:27:53.825Z,99.90
2023-05-09T02:30:25.655Z,99.90
2023-05-09T02:32:58.760Z,99.90
2023-05-09T02:35:28.472Z,99.90
2023-05-09T02:38:00.193Z,99.90
2023-05-09T02:40:30.536Z,99.90
2023-05-09T02:42:59.473Z,99.90
2023-05-09T02:45:27.883Z,99.90
2023-05-09T02:47:57.872Z,99.90
2023-05-09T02:50:26.372Z,99.90
2023-05-09T02:52:54.517Z,99.90
2023-05-09T02:55:22.811Z,99.90
2023-05-09T02:57:58.920Z,99.90
2023-05-09T03:00:34.157Z,99.90
2023-05-09T03:03:04.073Z,99.90
2023-05-09T03:05:32.617Z,99.90
2023-05-09T03:08:01.132Z,99.90
2023-05-09T03:10:29.772Z,99.90
2023-05-09T03:12:58.337Z,99.90
2023-05-09T03:15:27.010Z,99.90
2023-05-09T03:17:55.725Z,99.90
2023-05-09T03:20:27.397Z,99.90
2023-05-09T03:22:55.832Z,99.90
2023-05-09T03:25:26.271Z,99.90
2023-05-09T03:27:54.673Z,99.90
2023-05-09T03:30:23.267Z,99.90
2023-05-09T03:32:51.636Z,99.90
2023-05-09T03:35:20.207Z,99.90
2023-05-09T03:37:49.989Z,99.90
2023-05-09T03:40:18.461Z,99.90
2023-05-09T03:42:51.402Z,99.90
2023-05-09T03:45:21.359Z,99.90
2023-05-09T03:47:49.555Z,99.90
2023-05-09T03:50:17.872Z,99.90
2023-05-09T03:52:46.393Z,99.90
2023-05-09T03:55:16.853Z,99.90
2023-05-09T03:57:45.300Z,99.90
2023-05-09T04:00:14.386Z,99.90
2023-05-09T04:02:42.818Z,99.90
2023-05-09T04:05:11.038Z,99.90
2023-05-09T04:07:39.058Z,99.90
2023-05-09T04:10:08.368Z,99.90
2023-05-09T04:12:37.782Z,99.90
2023-05-09T04:15:07.201Z,99.90
2023-05-09T04:17:35.260Z,99.90
2023-05-09T04:20:03.362Z,99.90
2023-05-09T04:22:31.459Z,99.90
2023-05-09T04:24:59.523Z,99.90
2023-05-09T04:27:28.087Z,99.90
2023-05-09T04:29:57.480Z,99.90
2023-05-09T04:32:25.684Z,99.90
2023-05-09T04:34:53.762Z,99.90
2023-05-09T04:37:21.999Z,99.90
2023-05-09T04:39:50.105Z,99.90
2023-05-09T04:42:18.171Z,99.90
2023-05-09T04:44:46.225Z,99.90
2023-05-09T04:47:15.890Z,99.90
2023-05-09T04:49:43.964Z,99.90
2023-05-09T04:52:12.157Z,99.90
2023-05-09T04:54:41.046Z,99.90
2023-05-09T04:57:17.348Z,99.90
2023-05-09T04:59:46.927Z,99.90
2023-05-09T05:02:16.519Z,99.80
2023-05-09T05:04:44.678Z,99.80
2023-05-09T05:07:12.920Z,99.50
2023-05-09T05:09:41.037Z,99.50
2023-05-09T05:12:09.904Z,99.30
2023-05-09T05:14:38.626Z,99.30
2023-05-09T05:17:07.014Z,98.10
2023-05-09T05:19:36.558Z,97.20
2023-05-09T05:22:04.642Z,94.50
2023-05-09T05:24:32.743Z,92.40
2023-05-09T05:27:00.799Z,88.70
2023-05-09T05:29:28.867Z,87.80
2023-05-09T05:31:57.096Z,85.90
2023-05-09T05:34:25.292Z,84.10
2023-05-09T05:36:54.747Z,82.00
2023-05-09T05:39:22.946Z,80.80
2023-05-09T05:41:51.999Z,80.60
2023-05-09T05:44:20.247Z,80.70
2023-05-09T05:46:48.349Z,78.20
2023-05-09T05:49:16.539Z,74.30
2023-05-09T05:51:44.672Z,74.20
2023-05-09T05:54:14.149Z,75.20
2023-05-09T05:56:42.286Z,74.80
2023-05-09T05:59:13.050Z,74.00
2023-05-09T06:01:41.925Z,74.40
2023-05-09T06:04:10.205Z,72.70
2023-05-09T06:06:38.519Z,73.70
2023-05-09T06:09:06.587Z,73.00
2023-05-09T06:11:36.008Z,71.10
2023-05-09T06:14:04.196Z,70.60
2023-05-09T06:16:32.440Z,70.40
2023-05-09T06:19:00.493Z,69.80
2023-05-09T06:21:28.577Z,70.40
2023-05-09T06:26:27.754Z,70.60
2023-05-09T06:28:57.310Z,69.90
2023-05-09T06:31:25.895Z,69.50
2023-05-09T06:33:54.107Z,69.80
2023-05-09T06:36:22.367Z,69.40
2023-05-09T06:38:50.526Z,69.50
2023-05-09T06:41:18.737Z,68.90
2023-05-09T06:43:46.896Z,68.10
2023-05-09T06:46:16.410Z,68.30
2023-05-09T06:48:44.545Z,68.70
2023-05-09T06:51:12.687Z,69.30
2023-05-09T06:53:40.791Z,69.60
2023-05-09T06:56:08.951Z,69.90
2023-05-09T06:58:37.410Z,69.70
2023-05-09T07:01:05.842Z,71.50
2023-05-09T07:03:35.425Z,70.90
2023-05-09T07:06:03.657Z,68.30
2023-05-09T07:08:31.797Z,66.90
2023-05-09T07:11:00.105Z,68.10
2023-05-09T07:13:28.395Z,67.30
2023-05-09T07:15:56.572Z,67.10
2023-05-09T07:18:24.964Z,69.20
2023-05-09T07:20:54.490Z,65.80
2023-05-09T07:23:22.671Z,67.10
2023-05-09T07:25:51.056Z,67.00
2023-05-09T07:28:19.142Z,67.70
2023-05-09T07:30:47.212Z,66.40
2023-05-09T07:33:15.365Z,65.20
2023-05-09T07:35:43.471Z,65.70
2023-05-09T07:38:12.979Z,66.40
2023-05-09T07:40:41.288Z,65.70
2023-05-09T07:43:09.576Z,66.20
2023-05-09T07:45:37.820Z,65.50
2023-05-09T07:48:06.742Z,66.00
2023-05-09T07:50:35.269Z,65.40
2023-05-09T07:53:03.489Z,65.90
2023-05-09T07:55:33.084Z,66.40
2023-05-09T07:58:01.319Z,65.90
2023-05-09T08:00:29.481Z,65.90
2023-05-09T08:02:57.661Z,65.10
2023-05-09T08:05:25.860Z,65.40
2023-05-09T08:07:54.103Z,66.30
2023-05-09T08:10:23.603Z,66.90
2023-05-09T08:12:53.329Z,66.80
2023-05-09T08:15:21.622Z,66.50
2023-05-09T08:17:49.884Z,66.50
2023-05-09T08:20:18.405Z,64.80
2023-05-09T08:22:49.584Z,64.90
2023-05-09T08:25:18.328Z,64.80
2023-05-09T08:27:46.460Z,65.20
2023-05-09T08:30:16.787Z,64.00
2023-05-09T08:32:45.006Z,63.60
2023-05-09T08:35:13.450Z,64.50
2023-05-09T08:37:41.966Z,64.10
2023-05-09T08:40:10.662Z,66.50
2023-05-09T08:42:40.161Z,66.40
2023-05-09T08:45:11.545Z,68.10
2023-05-09T08:47:41.923Z,68.30
2023-05-09T08:50:11.682Z,69.00
2023-05-09T08:52:40.060Z,70.80
2023-05-09T08:55:08.707Z,71.10
2023-05-09T08:57:36.936Z,71.80
2023-05-09T09:00:06.814Z,71.90
2023-05-09T09:02:37.134Z,72.90
2023-05-09T09:05:12.709Z,72.80
2023-05-09T09:07:48.213Z,73.50
2023-05-09T09:10:17.878Z,74.90
2023-05-09T09:12:48.682Z,73.80
2023-05-09T09:15:21.068Z,73.50
2023-05-09T09:17:52.768Z,72.10
2023-05-09T09:20:24.281Z,72.40
2023-05-09T09:22:56.713Z,72.10
2023-05-09T09:25:24.911Z,72.40
2023-05-09T09:27:53.048Z,72.80
2023-05-09T09:30:24.210Z,71.40
2023-05-09T09:32:52.494Z,70.70
2023-05-09T09:35:22.176Z,70.30
2023-05-09T09:37:50.342Z,72.20
2023-05-09T09:40:18.943Z,71.60
2023-05-09T09:42:48.722Z,70.70
2023-05-09T09:45:18.528Z,70.50
2023-05-09T09:47:47.940Z,71.30
2023-05-09T09:50:17.983Z,71.40
2023-05-09T09:52:51.530Z,71.20
2023-05-09T09:55:19.872Z,72.10
2023-05-09T09:57:48.884Z,72.70
2023-05-09T10:00:18.848Z,72.40
2023-05-09T10:02:51.689Z,74.10
2023-05-09T10:05:24.096Z,73.00
2023-05-09T10:07:56.737Z,72.50
2023-05-09T10:10:27.706Z,71.90
2023-05-09T10:12:58.144Z,71.60
2023-05-09T10:15:28.685Z,71.80
2023-05-09T10:18:00.976Z,72.00
2023-05-09T10:20:30.012Z,72.40
2023-05-09T10:23:03.602Z,72.50
2023-05-09T10:25:40.870Z,72.80
2023-05-09T10:28:12.777Z,73.30
2023-05-09T10:30:50.997Z,72.30
2023-05-09T10:33:25.359Z,71.80
2023-05-09T10:35:55.503Z,71.60
2023-05-09T10:38:25.919Z,71.50
2023-05-09T10:40:55.480Z,71.50
2023-05-09T10:43:25.356Z,70.80
2023-05-09T10:45:54.691Z,71.30
2023-05-09T10:48:24.183Z,70.30
2023-05-09T10:50:53.620Z,70.80
2023-05-09T10:53:24.373Z,70.50
2023-05-09T10:55:56.022Z,70.80
2023-05-09T10:58:27.490Z,71.10
2023-05-09T11:00:57.339Z,72.00
2023-05-09T11:03:26.408Z,71.20
2023-05-09T11:05:57.198Z,70.40
2023-05-09T11:08:27.120Z,69.80
2023-05-09T11:10:57.694Z,70.40
2023-05-09T11:13:31.334Z,70.70
2023-05-09T11:16:06.385Z,70.40
2023-05-09T11:18:34.728Z,71.70
2023-05-09T11:21:10.013Z,71.00
2023-05-09T11:23:39.466Z,69.30
2023-05-09T11:26:10.040Z,69.30
2023-05-09T11:28:39.980Z,70.00
2023-05-09T11:31:12.912Z,69.40
2023-05-09T11:33:42.118Z,69.50
2023-05-09T11:36:18.663Z,69.70
2023-05-09T11:38:48.009Z,69.70
2023-05-09T11:41:17.613Z,69.60
2023-05-09T11:43:45.966Z,70.60
2023-05-09T11:46:14.300Z,69.40
2023-05-09T11:48:43.058Z,68.70
2023-05-09T11:51:19.063Z,68.20
2023-05-09T11:53:50.598Z,69.10
2023-05-09T11:56:20.358Z,70.10
2023-05-09T11:58:50.898Z,69.30
2023-05-09T12:01:19.886Z,69.50
2023-05-09T12:03:48.284Z,69.30
2023-05-09T12:06:18.343Z,69.10
2023-05-09T12:08:47.613Z,68.70
2023-05-09T12:11:16.277Z,69.30
2023-05-09T12:13:50.074Z,69.10
2023-05-09T12:16:19.578Z,69.80
2023-05-09T12:18:48.813Z,69.50
2023-05-09T12:21:17.465Z,69.60
2023-05-09T12:23:46.725Z,70.00
2023-05-09T12:26:16.471Z,69.10
2023-05-09T12:28:45.408Z,69.20
2023-05-09T12:31:15.299Z,69.60
2023-05-09T12:33:43.716Z,69.50
2023-05-09T12:36:13.584Z,70.70
2023-05-09T12:38:42.636Z,71.20
2023-05-09T12:41:30.951Z,69.80
2023-05-09T12:44:01.207Z,69.70
2023-05-09T12:46:30.981Z,69.60
2023-05-09T12:48:59.604Z,69.90
2023-05-09T12:51:27.835Z,70.00
2023-05-09T12:53:56.104Z,69.70
2023-05-09T12:56:24.517Z,69.30
2023-05-09T12:58:56.237Z,69.30
2023-05-09T13:01:29.858Z,69.30
2023-05-09T13:04:04.454Z,69.30
2023-05-09T13:06:32.894Z,69.90
2023-05-09T13:09:02.589Z,70.10
2023-05-09T13:11:31.019Z,69.90
2023-05-09T13:13:59.614Z,69.30
2023-05-09T13:16:28.165Z,69.50
2023-05-09T13:18:56.442Z,70.20
2023-05-09T13:21:26.223Z,70.80
2023-05-09T13:23:54.666Z,69.50
2023-05-09T13:26:23.035Z,68.50
2023-05-09T13:28:51.384Z,68.90
2023-05-09T13:31:20.324Z,69.10
2023-05-09T13:33:50.903Z,68.90
2023-05-09T13:36:20.312Z,68.40
2023-05-09T13:38:49.995Z,68.70
2023-05-09T13:41:22.531Z,68.80
2023-05-09T13:43:51.144Z,68.80
2023-05-09T13:46:19.459Z,69.00
2023-05-09T13:48:48.457Z,68.90
2023-05-09T13:51:16.729Z,69.00
2023-05-09T13:53:44.991Z,68.70
2023-05-09T13:56:14.675Z,69.10
2023-05-09T13:58:42.891Z,68.80
2023-05-09T14:01:11.459Z,69.00
2023-05-09T14:03:39.771Z,69.00
2023-05-09T14:06:09.331Z,69.60
2023-05-09T14:08:37.776Z,69.30
2023-05-09T14:11:07.540Z,69.50
2023-05-09T14:13:37.316Z,68.20
2023-05-09T14:16:06.249Z,68.70
2023-05-09T14:18:35.448Z,68.70
2023-05-09T14:21:03.770Z,68.60
2023-05-09T14:23:32.031Z,69.10
2023-05-09T14:26:00.287Z,69.20
2023-05-09T14:28:28.512Z,68.50
2023-05-09T14:30:58.515Z,68.10
2023-05-09T14:33:27.999Z,68.00
2023-05-09T14:35:56.441Z,68.00
2023-05-09T14:38:24.665Z,68.10
2023-05-09T14:40:52.962Z,68.50
2023-05-09T14:43:22.288Z,67.30
2023-05-09T14:45:50.525Z,68.70
2023-05-09T14:48:20.245Z,68.50
2023-05-09T14:50:49.718Z,68.30
2023-05-09T14:53:17.962Z,68.50
2023-05-09T14:55:46.378Z,68.60
2023-05-09T14:58:16.105Z,69.10
2023-05-09T15:00:44.526Z,69.30
2023-05-09T15:03:12.962Z,68.10
2023-05-09T15:05:42.899Z,67.90
2023-05-09T15:08:11.294Z,67.60
2023-05-09T15:10:39.788Z,67.90
2023-05-09T15:13:08.030Z,68.10
2023-05-09T15:15:38.444Z,68.00
2023-05-09T15:18:10.012Z,66.30
2023-05-09T15:20:38.628Z,67.40
2023-05-09T15:23:08.617Z,67.80
2023-05-09T15:25:36.905Z,68.20
2023-05-09T15:28:05.379Z,68.70
2023-05-09T15:30:34.617Z,68.90
2023-05-09T15:33:04.121Z,69.00
2023-05-09T15:35:33.539Z,68.90
2023-05-09T15:38:01.836Z,68.70
2023-05-09T15:40:31.610Z,68.90
2023-05-09T15:43:00.110Z,68.90
2023-05-09T15:45:28.907Z,69.30
2023-05-09T15:47:57.155Z,69.30
2023-05-09T15:50:25.445Z,68.20
2023-05-09T15:52:53.641Z,68.60
2023-05-09T15:55:23.070Z,69.10
2023-05-09T15:57:52.758Z,68.20
2023-05-09T16:00:21.510Z,68.60
2023-05-09T16:02:49.949Z,69.30
2023-05-09T16:05:19.028Z,68.60
2023-05-09T16:07:50.244Z,68.30
2023-05-09T16:10:18.890Z,68.90
2023-05-09T16:12:47.543Z,69.40
2023-05-09T16:15:17.752Z,69.60
2023-05-09T16:17:46.346Z,69.70
2023-05-09T16:20:15.575Z,69.70
2023-05-09T16:22:44.474Z,69.80
2023-05-09T16:25:13.229Z,69.80
2023-05-09T16:27:41.693Z,69.70
2023-05-09T16:30:11.397Z,69.90
2023-05-09T16:32:41.565Z,70.20
2023-05-09T16:35:10.794Z,69.80
2023-05-09T16:37:39.527Z,69.90
2023-05-09T16:40:09.167Z,70.00
2023-05-09T16:42:41.445Z,70.10
2023-05-09T16:45:11.638Z,70.50
2023-05-09T16:47:41.632Z,70.70
2023-05-09T16:50:11.130Z,70.70
2023-05-09T16:52:39.748Z,71.10
2023-05-09T16:55:08.970Z,71.20
2023-05-09T16:57:37.386Z,71.80
2023-05-09T17:00:08.144Z,72.40
2023-05-09T17:02:37.538Z,72.40
2023-05-09T17:05:08.831Z,72.80
2023-05-09T17:07:37.226Z,71.90
2023-05-09T17:10:06.159Z,72.30
2023-05-09T17:12:35.307Z,72.40
2023-05-09T17:15:03.774Z,72.30
2023-05-09T17:17:32.128Z,72.30
2023-05-09T17:20:01.106Z,72.30
2023-05-09T17:22:30.865Z,72.40
2023-05-09T17:24:59.382Z,72.70
2023-05-09T17:27:28.090Z,73.30
2023-05-09T17:29:56.643Z,73.70
2023-05-09T17:32:25.307Z,74.00
2023-05-09T17:34:54.549Z,74.00
2023-05-09T17:37:22.958Z,74.10
2023-05-09T17:39:52.990Z,74.60
2023-05-09T17:42:21.486Z,74.60
2023-05-09T17:44:50.471Z,75.00
2023-05-09T17:47:18.951Z,74.70
2023-05-09T17:49:47.418Z,75.00
2023-05-09T17:52:15.790Z,75.60
2023-05-09T17:54:44.887Z,75.60
2023-05-09T17:57:14.828Z,75.80
2023-05-09T17:59:43.202Z,76.20
2023-05-09T18:02:11.586Z,76.80
2023-05-09T18:04:39.852Z,76.80
2023-05-09T18:07:09.714Z,76.80
2023-05-09T18:09:37.916Z,76.80
2023-05-09T18:12:06.740Z,76.90
2023-05-09T18:14:37.057Z,77.00
2023-05-09T18:17:05.603Z,76.90
2023-05-09T18:19:35.683Z,77.00
2023-05-09T18:22:04.387Z,76.90
2023-05-09T18:24:33.024Z,77.30
2023-05-09T18:27:03.227Z,77.40
2023-05-09T18:29:31.999Z,77.50
2023-05-09T18:32:02.612Z,77.60
2023-05-09T18:34:32.273Z,77.90
2023-05-09T18:37:00.692Z,77.90
2023-05-09T18:39:29.271Z,77.80
2023-05-09T18:41:57.838Z,77.60
2023-05-09T18:44:26.640Z,77.80
2023-05-09T18:46:55.325Z,78.00
2023-05-09T18:49:26.356Z,77.80
2023-05-09T18:51:56.420Z,78.00
2023-05-09T18:54:24.880Z,77.90
2023-05-09T18:56:53.629Z,77.80
2023-05-09T18:59:23.628Z,77.90
2023-05-09T19:01:52.194Z,77.80
2023-05-09T19:04:21.817Z,78.10
2023-05-09T19:06:51.792Z,78.20
2023-05-09T19:09:20.316Z,77.80
2023-05-09T19:11:48.842Z,77.80
2023-05-09T19:14:17.311Z,77.80
2023-05-09T19:16:45.832Z,77.60
2023-05-09T19:19:14.694Z,77.70
2023-05-09T19:21:43.768Z,77.70
2023-05-09T19:24:13.691Z,77.90
2023-05-09T19:26:42.183Z,78.10
2023-05-09T19:29:10.785Z,78.20
2023-05-09T19:31:39.169Z,78.20
2023-05-09T19:34:07.748Z,78.40
2023-05-09T19:36:36.238Z,78.50
2023-05-09T19:39:05.570Z,78.40
2023-05-09T19:41:35.720Z,78.10
2023-05-09T19:44:04.236Z,78.00
2023-05-09T19:46:33.015Z,78.40
2023-05-09T19:49:01.519Z,78.50
2023-05-09T19:51:30.523Z,79.20
2023-05-09T19:53:59.091Z,78.90
2023-05-09T19:56:27.865Z,78.80
2023-05-09T19:58:57.753Z,78.90
2023-05-09T20:01:26.902Z,79.00
2023-05-09T20:03:56.941Z,79.10
2023-05-09T20:06:25.974Z,79.20
2023-05-09T20:08:54.822Z,79.40
2023-05-09T20:11:23.566Z,79.60
2023-05-09T20:13:52.586Z,79.50
2023-05-09T20:16:23.252Z,79.60
2023-05-09T20:18:52.744Z,79.60
2023-05-09T20:21:22.150Z,79.40
2023-05-09T20:23:50.664Z,79.70
2023-05-09T20:26:19.186Z,79.70
2023-05-09T20:28:47.946Z,79.80
2023-05-09T20:31:16.555Z,79.90
2023-05-09T20:33:46.905Z,80.20
2023-05-09T20:36:15.544Z,80.50
2023-05-09T20:38:44.092Z,81.00
2023-05-09T20:41:13.334Z,81.30
2023-05-09T20:43:43.110Z,81.40
2023-05-09T20:46:12.598Z,81.80
2023-05-09T20:48:41.239Z,81.90
2023-05-09T20:51:11.219Z,82.10
2023-05-09T20:53:39.624Z,82.50
2023-05-09T20:56:08.727Z,82.80
2023-05-09T20:58:37.232Z,83.10
2023-05-09T21:01:05.783Z,83.20
2023-05-09T21:03:34.920Z,83.20
2023-05-09T21:06:03.484Z,83.60
2023-05-09T21:08:33.286Z,83.70
2023-05-09T21:11:01.521Z,83.90
2023-05-09T21:13:30.026Z,83.80
2023-05-09T21:15:58.509Z,84.10
2023-05-09T21:18:27.584Z,84.40
2023-05-09T21:20:55.816Z,84.60
2023-05-09T21:23:24.139Z,84.90
2023-05-09T21:25:53.863Z,85.00
2023-05-09T21:28:22.170Z,85.00
2023-05-09T21:30:52.917Z,85.30
2023-05-09T21:33:21.337Z,85.40
2023-05-09T21:35:49.688Z,85.50
2023-05-09T21:38:17.915Z,85.70
2023-05-09T21:40:46.195Z,85.90
2023-05-09T21:43:18.321Z,86.20
2023-05-09T21:45:47.060Z,86.70
2023-05-09T21:48:15.774Z,86.50
2023-05-09T21:50:46.410Z,86.70
2023-05-09T21:53:14.789Z,87.20
2023-05-09T21:55:43.271Z,87.50
2023-05-09T21:58:11.677Z,87.50
2023-05-09T22:00:41.326Z,87.80
2023-05-09T22:03:09.421Z,87.80
2023-05-09T22:05:37.662Z,88.00
2023-05-09T22:08:06.289Z,88.20
2023-05-09T22:10:34.410Z,88.10
2023-05-09T22:13:02.597Z,88.80
2023-05-09T22:15:30.725Z,88.90
2023-05-09T22:18:00.281Z,89.20
2023-05-09T22:20:28.567Z,89.40
2023-05-09T22:22:56.690Z,89.60
2023-05-09T22:25:24.759Z,89.80
2023-05-09T22:27:52.851Z,90.00
2023-05-09T22:30:21.039Z,90.20
2023-05-09T22:32:49.214Z,90.20
2023-05-09T22:35:18.712Z,89.60
2023-05-09T22:37:46.803Z,90.50
2023-05-09T22:40:15.467Z,90.60
2023-05-09T22:42:43.723Z,90.80
2023-05-09T22:45:12.478Z,90.90
2023-05-09T22:47:40.528Z,91.00
2023-05-09T22:50:09.995Z,91.20
2023-05-09T22:52:39.443Z,91.30
2023-05-09T22:55:08.604Z,91.30
2023-05-09T22:57:36.807Z,91.40
2023-05-09T23:00:06.080Z,91.60
2023-05-09T23:02:34.308Z,91.60
2023-05-09T23:05:02.350Z,91.80
2023-05-09T23:07:30.482Z,91.80
2023-05-09T23:10:00.002Z,92.00
2023-05-09T23:12:28.109Z,92.00
2023-05-09T23:14:56.179Z,92.10
2023-05-09T23:17:24.547Z,92.20
2023-05-09T23:19:53.062Z,92.30
2023-05-09T23:22:21.273Z,92.50
2023-05-09T23:24:49.703Z,92.50
2023-05-09T23:27:19.273Z,92.60
2023-05-09T23:29:47.471Z,92.60
2023-05-09T23:32:15.858Z,92.70
2023-05-09T23:34:44.136Z,92.90
2023-05-09T23:37:12.963Z,93.10
2023-05-09T23:39:41.284Z,93.10
2023-05-09T23:42:09.686Z,93.20
2023-05-09T23:44:39.470Z,93.40
2023-05-09T23:47:07.627Z,93.40
2023-05-09T23:49:36.049Z,93.50
2023-05-09T23:52:04.260Z,93.50
2023-05-09T23:54:32.482Z,93.70
2023-05-09T23:57:00.863Z,93.80
2023-05-09T23:59:29.181Z,93.90
